createdAt,value
2022-12-03T00:01:26.501Z,100087.47
2022-12-03T00:04:14.420Z,100088.88
2022-12-03T00:07:02.483Z,100096.56
2022-12-03T00:09:50.423Z,100089.84
2022-12-03T00:12:40.064Z,100048.03
2022-12-03T00:15:28.067Z,100089.72
2022-12-03T00:18:16.138Z,100086.97
2022-12-03T00:21:04.076Z,100085.88
2022-12-03T00:23:52.069Z,100086.81
2022-12-03T00:26:39.989Z,100083.59
2022-12-03T00:29:29.843Z,100086.03
2022-12-03T00:32:17.816Z,100085.41
2022-12-03T00:35:06.381Z,100094.31
2022-12-03T00:37:54.668Z,100082.63
2022-12-03T00:40:42.631Z,100092.06
2022-12-03T00:43:30.552Z,100087.59
2022-12-03T00:46:21.568Z,100088.53
2022-12-03T00:49:09.956Z,100083.91
2022-12-03T00:51:57.934Z,100083.25
2022-12-03T00:54:46.050Z,100081.50
2022-12-03T00:57:33.981Z,100079.91
2022-12-03T01:00:25.234Z,100084.41
2022-12-03T01:03:14.597Z,100085.03
2022-12-03T01:06:02.675Z,100091.25
2022-12-03T01:08:50.653Z,100085.81
2022-12-03T01:11:39.033Z,100089.66
2022-12-03T01:14:27.209Z,100095.72
2022-12-03T01:17:15.195Z,100091.88
2022-12-03T01:20:04.758Z,100093.78
2022-12-03T01:22:52.715Z,100098.91
2022-12-03T01:25:40.645Z,100098.41
2022-12-03T01:28:29.305Z,100097.63
2022-12-03T01:31:34.781Z,100090.72
2022-12-03T01:34:22.946Z,100087.38
2022-12-03T01:37:12.213Z,100087.41
2022-12-03T01:40:00.122Z,100089.13
2022-12-03T01:42:48.109Z,100091.88
2022-12-03T01:45:36.106Z,100099.03
2022-12-03T01:48:24.063Z,100102.22
2022-12-03T01:51:13.546Z,100098.78
2022-12-03T01:54:04.101Z,100099.84
2022-12-03T01:56:52.209Z,100092.78
2022-12-03T01:59:40.385Z,100110.88
2022-12-03T02:02:30.832Z,100104.66
2022-12-03T02:05:21.420Z,100111.38
2022-12-03T02:08:31.241Z,100106.25
2022-12-03T02:11:25.722Z,100094.78
2022-12-03T02:14:18.361Z,100105.28
2022-12-03T02:17:06.563Z,100112.16
2022-12-03T02:19:55.484Z,100105.16
2022-12-03T02:22:49.434Z,100101.28
2022-12-03T02:25:39.108Z,100016.59
2022-12-03T02:28:27.189Z,100099.75
2022-12-03T02:31:15.248Z,100095.25
2022-12-03T02:34:06.517Z,100094.16
2022-12-03T02:36:54.465Z,100087.44
2022-12-03T02:39:47.849Z,100086.50
2022-12-03T02:42:38.391Z,100083.81
2022-12-03T02:45:29.666Z,100084.25
2022-12-03T02:48:20.628Z,100083.00
2022-12-03T02:51:11.174Z,100080.75
2022-12-03T02:54:00.324Z,100079.50
2022-12-03T02:56:48.284Z,100074.84
2022-12-03T02:59:37.727Z,100069.59
2022-12-03T03:02:28.293Z,100077.25
2022-12-03T03:05:19.218Z,100088.91
2022-12-03T03:08:09.356Z,100078.25
2022-12-03T03:11:00.406Z,100083.81
2022-12-03T03:13:48.579Z,100078.19
2022-12-03T03:16:37.979Z,100079.81
2022-12-03T03:19:27.488Z,100083.34
2022-12-03T03:22:15.498Z,100088.13
2022-12-03T03:25:04.378Z,100083.13
2022-12-03T03:27:52.303Z,100072.94
2022-12-03T03:30:41.970Z,100077.53
2022-12-03T03:33:31.572Z,100075.00
2022-12-03T03:36:20.673Z,100076.13
2022-12-03T03:39:08.890Z,100082.19
2022-12-03T03:41:56.908Z,100083.81
2022-12-03T03:44:45.096Z,100086.19
2022-12-03T03:47:33.399Z,100086.03
2022-12-03T03:50:23.287Z,100085.84
2022-12-03T03:53:12.688Z,100087.28
2022-12-03T03:56:00.612Z,100090.31
2022-12-03T03:58:50.252Z,100072.88
2022-12-03T04:01:38.795Z,100081.69
2022-12-03T04:04:28.280Z,100082.63
2022-12-03T04:07:17.838Z,100082.28
2022-12-03T04:10:27.227Z,100088.41
2022-12-03T04:13:14.440Z,100080.53
2022-12-03T04:16:02.395Z,100088.53
2022-12-03T04:18:50.811Z,100084.69
2022-12-03T04:21:56.367Z,100082.16
2022-12-03T04:24:46.520Z,100079.06
2022-12-03T04:27:52.020Z,100072.84
2022-12-03T04:30:40.035Z,100078.13
2022-12-03T04:33:45.491Z,100078.97
2022-12-03T04:36:33.533Z,100082.13
2022-12-03T04:39:22.045Z,100077.81
2022-12-03T04:42:11.354Z,100076.34
2022-12-03T04:44:59.283Z,100071.28
2022-12-03T04:47:47.202Z,100071.91
2022-12-03T04:50:35.180Z,100074.47
2022-12-03T04:53:23.176Z,100072.56
2022-12-03T04:56:11.121Z,100073.66
2022-12-03T04:59:00.370Z,100071.41
2022-12-03T05:01:48.814Z,100069.16
2022-12-03T05:04:36.941Z,100069.84
2022-12-03T05:07:24.944Z,100081.03
2022-12-03T05:10:13.656Z,100066.00
2022-12-03T05:13:01.537Z,100064.91
2022-12-03T05:15:50.782Z,100064.59
2022-12-03T05:18:38.736Z,100065.84
2022-12-03T05:21:26.634Z,100065.84
2022-12-03T05:24:14.534Z,100055.31
2022-12-03T05:27:02.396Z,100056.94
2022-12-03T05:29:50.372Z,100059.81
2022-12-03T05:32:39.651Z,100058.66
2022-12-03T05:35:29.227Z,100061.56
2022-12-03T05:38:17.138Z,100057.25
2022-12-03T05:41:25.772Z,100058.84
2022-12-03T05:44:17.380Z,100062.06
2022-12-03T05:47:08.127Z,100056.63
2022-12-03T05:49:57.324Z,100061.09
2022-12-03T05:52:45.343Z,100062.38
2022-12-03T05:55:33.271Z,100060.78
2022-12-03T05:58:21.146Z,100060.28
2022-12-03T06:01:09.062Z,100064.00
2022-12-03T06:03:56.998Z,100064.63
2022-12-03T06:06:46.306Z,100061.47
2022-12-03T06:09:34.177Z,100063.22
2022-12-03T06:12:22.086Z,100056.03
2022-12-03T06:15:12.282Z,100051.88
2022-12-03T06:18:00.169Z,100046.94
2022-12-03T06:20:48.048Z,100048.03
2022-12-03T06:23:37.342Z,100044.19
2022-12-03T06:26:25.220Z,100038.16
2022-12-03T06:29:13.098Z,100042.63
2022-12-03T06:32:01.095Z,100049.00
2022-12-03T06:34:48.991Z,100047.22
2022-12-03T06:37:36.925Z,100049.31
2022-12-03T06:40:27.011Z,100041.31
2022-12-03T06:43:15.023Z,100046.91
2022-12-03T06:46:02.972Z,100037.81
2022-12-03T06:48:50.970Z,100038.41
2022-12-03T06:51:39.018Z,100036.22
2022-12-03T06:54:26.959Z,100037.16
2022-12-03T06:57:16.279Z,100034.25
2022-12-03T07:00:06.320Z,100042.31
2022-12-03T07:02:54.342Z,100042.13
2022-12-03T07:05:21.947Z,100041.13
2022-12-03T07:07:52.177Z,100045.94
2022-12-03T07:10:20.278Z,100051.34
2022-12-03T07:12:49.233Z,100050.22
2022-12-03T07:15:17.137Z,100057.69
2022-12-03T07:17:44.802Z,100064.25
2022-12-03T07:20:13.089Z,100072.56
2022-12-03T07:22:40.699Z,100068.59
2022-12-03T07:25:09.508Z,100075.78
2022-12-03T07:27:37.122Z,100078.84
2022-12-03T07:30:07.848Z,100083.38
2022-12-03T07:32:35.485Z,100077.50
2022-12-03T07:35:03.114Z,100079.28
2022-12-03T07:37:30.749Z,100077.38
2022-12-03T07:39:58.384Z,100071.50
2022-12-03T07:42:26.305Z,100070.69
2022-12-03T07:44:54.197Z,100064.63
2022-12-03T07:47:23.350Z,100061.94
2022-12-03T07:49:50.975Z,100062.88
2022-12-03T07:52:18.593Z,100065.59
2022-12-03T07:54:46.253Z,100055.84
2022-12-03T07:57:13.958Z,100064.00
2022-12-03T07:59:41.598Z,100068.81
2022-12-03T08:02:10.224Z,100057.28
2022-12-03T08:04:39.169Z,100068.16
2022-12-03T08:07:06.757Z,100060.03
2022-12-03T08:09:34.363Z,100062.88
2022-12-03T08:12:06.830Z,100071.19
2022-12-03T08:14:34.567Z,100072.59
2022-12-03T08:17:02.346Z,100073.22
2022-12-03T08:19:29.965Z,100065.03
2022-12-03T08:22:01.640Z,100057.66
2022-12-03T08:24:31.348Z,100060.81
2022-12-03T08:26:58.957Z,100054.56
2022-12-03T08:29:26.612Z,100053.50
2022-12-03T08:31:56.928Z,100047.22
2022-12-03T08:34:27.279Z,100047.19
2022-12-03T08:36:59.818Z,100047.50
2022-12-03T08:39:33.136Z,100048.09
2022-12-03T08:42:27.611Z,100054.09
2022-12-03T08:44:56.155Z,100052.59
2022-12-03T08:47:25.336Z,100053.38
2022-12-03T08:49:57.913Z,100055.84
2022-12-03T08:52:32.980Z,100061.06
2022-12-03T08:55:03.749Z,100066.50
2022-12-03T08:57:33.590Z,100067.25
2022-12-03T09:00:04.670Z,100072.78
2022-12-03T09:02:34.099Z,100075.91
2022-12-03T09:05:14.170Z,100077.81
2022-12-03T09:07:43.186Z,100085.72
2022-12-03T09:10:11.331Z,100080.75
2022-12-03T09:12:39.133Z,100078.81
2022-12-03T09:15:08.063Z,100075.22
2022-12-03T09:17:35.714Z,100068.66
2022-12-03T09:20:03.570Z,100062.66
2022-12-03T09:22:31.291Z,100045.31
2022-12-03T09:25:00.464Z,100052.31
2022-12-03T09:27:28.187Z,100039.56
2022-12-03T09:29:55.838Z,100040.34
2022-12-03T09:32:23.605Z,100037.31
2022-12-03T09:34:52.068Z,100035.19
2022-12-03T09:37:20.402Z,100045.66
2022-12-03T09:39:48.015Z,100043.88
2022-12-03T09:42:17.181Z,100052.66
2022-12-03T09:44:44.993Z,100042.22
2022-12-03T09:47:13.152Z,100029.84
2022-12-03T09:49:41.468Z,100047.41
2022-12-03T09:52:11.479Z,100046.56
2022-12-03T09:54:44.182Z,100043.25
2022-12-03T09:57:14.738Z,100040.63
2022-12-03T09:59:43.883Z,100049.16
2022-12-03T10:02:20.502Z,100039.16
2022-12-03T10:04:48.521Z,100020.78
2022-12-03T10:07:16.492Z,100024.06
2022-12-03T10:09:44.303Z,100028.81
2022-12-03T10:12:14.216Z,100032.81
2022-12-03T10:14:44.195Z,100022.16
2022-12-03T10:17:12.687Z,100016.00
2022-12-03T10:19:42.576Z,100024.44
2022-12-03T10:22:10.266Z,100018.28
2022-12-03T10:24:39.145Z,100016.00
2022-12-03T10:27:22.166Z,100016.34
2022-12-03T10:29:57.763Z,100004.97
2022-12-03T10:32:27.350Z,99997.38
2022-12-03T10:35:09.661Z,100002.38
2022-12-03T10:37:37.674Z,99997.94
2022-12-03T10:40:09.174Z,99996.47
2022-12-03T10:42:38.823Z,99996.34
2022-12-03T10:45:17.812Z,99992.69
2022-12-03T10:48:03.691Z,99988.25
2022-12-03T10:50:32.240Z,99987.16
2022-12-03T10:53:00.196Z,99985.06
2022-12-03T10:55:29.863Z,99981.88
2022-12-03T10:57:58.406Z,99980.53
2022-12-03T11:00:27.678Z,99975.19
2022-12-03T11:02:57.244Z,99976.81
2022-12-03T11:05:28.128Z,99973.19
2022-12-03T11:07:56.541Z,99972.81
2022-12-03T11:10:24.934Z,99958.16
2022-12-03T11:13:30.746Z,99947.81
2022-12-03T11:16:00.433Z,99943.06
2022-12-03T11:19:00.149Z,99948.06
2022-12-03T11:21:28.097Z,99941.56
2022-12-03T11:24:21.527Z,99945.41
2022-12-03T11:27:20.537Z,99920.31
2022-12-03T11:30:01.983Z,99940.88
2022-12-03T11:33:06.279Z,99940.31
2022-12-03T11:36:31.795Z,99938.28
2022-12-03T11:39:09.558Z,99954.66
2022-12-03T11:41:37.156Z,99940.66
2022-12-03T11:44:21.813Z,99950.91
2022-12-03T11:46:49.922Z,99943.75
2022-12-03T11:49:33.606Z,99947.16
2022-12-03T11:52:03.503Z,99917.38
2022-12-03T11:54:36.121Z,99934.31
2022-12-03T11:57:04.169Z,99939.78
2022-12-03T11:59:31.845Z,99929.31
2022-12-03T12:01:59.494Z,99927.84
2022-12-03T12:04:30.980Z,99924.66
2022-12-03T12:06:59.053Z,99916.38
2022-12-03T12:09:50.483Z,99928.16
2022-12-03T12:12:28.801Z,99921.34
2022-12-03T12:14:56.710Z,99924.75
2022-12-03T12:17:36.062Z,99916.94
2022-12-03T12:20:23.425Z,99921.38
2022-12-03T12:22:51.705Z,99918.19
2022-12-03T12:25:47.271Z,99914.31
2022-12-03T12:28:17.134Z,99902.84
2022-12-03T12:30:44.835Z,99914.66
2022-12-03T12:33:18.884Z,99911.13
2022-12-03T12:35:46.527Z,99909.88
2022-12-03T12:38:18.054Z,99903.16
2022-12-03T12:40:49.357Z,99906.13
2022-12-03T12:43:24.341Z,99904.19
2022-12-03T12:45:54.571Z,99899.19
2022-12-03T12:48:26.168Z,99894.78
2022-12-03T12:51:02.206Z,99865.16
2022-12-03T12:53:32.240Z,99890.69
2022-12-03T12:56:08.092Z,99895.09
2022-12-03T12:58:36.753Z,99891.78
2022-12-03T13:01:07.372Z,99886.34
2022-12-03T13:03:40.209Z,99890.44
2022-12-03T13:06:15.835Z,99888.88
2022-12-03T13:08:45.949Z,99891.34
2022-12-03T13:11:34.277Z,99885.25
2022-12-03T13:14:06.570Z,99884.78
2022-12-03T13:16:35.462Z,99881.00
2022-12-03T13:19:03.658Z,99866.41
2022-12-03T13:21:38.700Z,99888.63
2022-12-03T13:24:27.829Z,99838.69
2022-12-03T13:26:57.534Z,99837.41
2022-12-03T13:29:27.148Z,99876.91
2022-12-03T13:31:57.363Z,99881.66
2022-12-03T13:34:27.472Z,99871.00
2022-12-03T13:36:58.591Z,99876.31
2022-12-03T13:39:31.633Z,99870.09
2022-12-03T13:42:36.477Z,99871.00
2022-12-03T13:45:29.242Z,99883.59
2022-12-03T13:48:00.043Z,99835.97
2022-12-03T13:50:34.974Z,99873.28
2022-12-03T13:53:03.445Z,99871.94
2022-12-03T13:55:32.771Z,99874.13
2022-12-03T13:58:01.741Z,99859.34
2022-12-03T14:00:29.386Z,99865.13
2022-12-03T14:02:57.019Z,99863.88
2022-12-03T14:05:24.637Z,99859.72
2022-12-03T14:07:52.439Z,99858.22
2022-12-03T14:10:20.081Z,99868.69
2022-12-03T14:12:47.713Z,99860.16
2022-12-03T14:15:16.779Z,99855.50
2022-12-03T14:17:44.365Z,99852.66
2022-12-03T14:20:12.990Z,99849.47
2022-12-03T14:22:40.596Z,99849.47
2022-12-03T14:25:09.405Z,99857.88
2022-12-03T14:27:37.317Z,99778.97
2022-12-03T14:30:06.333Z,99861.28
2022-12-03T14:32:35.377Z,99855.16
2022-12-03T14:35:09.501Z,99860.50
2022-12-03T14:37:37.817Z,99856.88
2022-12-03T14:40:08.727Z,99865.47
2022-12-03T14:42:37.233Z,99867.72
2022-12-03T14:45:06.523Z,99868.56
2022-12-03T14:47:35.630Z,99865.13
2022-12-03T14:50:05.041Z,99809.16
2022-12-03T14:52:32.719Z,99867.63
2022-12-03T14:55:00.441Z,99874.66
2022-12-03T14:57:28.096Z,99868.31
2022-12-03T14:59:55.921Z,99870.81
2022-12-03T15:02:23.918Z,99869.66
2022-12-03T15:04:52.915Z,99869.88
2022-12-03T15:07:20.558Z,99865.09
2022-12-03T15:09:48.199Z,99865.25
2022-12-03T15:12:15.828Z,99862.16
2022-12-03T15:14:43.519Z,99871.16
2022-12-03T15:17:11.221Z,99868.44
2022-12-03T15:19:38.952Z,99869.09
2022-12-03T15:22:08.066Z,99873.63
2022-12-03T15:24:35.693Z,99877.38
2022-12-03T15:27:03.405Z,99874.00
2022-12-03T15:29:46.102Z,99882.03
2022-12-03T15:32:14.239Z,99874.19
2022-12-03T15:34:41.959Z,99870.81
2022-12-03T15:37:10.910Z,99876.22
2022-12-03T15:39:41.305Z,99879.16
2022-12-03T15:42:12.644Z,99873.31
2022-12-03T15:44:40.253Z,99877.31
2022-12-03T15:47:07.833Z,99868.69
2022-12-03T15:49:35.448Z,99870.78
2022-12-03T15:52:03.170Z,99864.81
2022-12-03T15:54:32.440Z,99868.25
2022-12-03T15:57:00.182Z,99871.88
2022-12-03T15:59:27.758Z,99861.44
2022-12-03T16:01:55.435Z,99861.53
2022-12-03T16:04:23.172Z,99854.44
2022-12-03T16:06:50.847Z,99855.34
2022-12-03T16:09:23.751Z,99861.59
2022-12-03T16:11:55.823Z,99859.31
2022-12-03T16:14:23.443Z,99864.88
2022-12-03T16:16:51.049Z,99854.19
2022-12-03T16:19:18.675Z,99859.31
2022-12-03T16:21:46.261Z,99859.00
2022-12-03T16:24:14.022Z,99851.16
2022-12-03T16:26:41.679Z,99846.28
2022-12-03T16:29:10.658Z,99849.88
2022-12-03T16:31:38.376Z,99856.66
2022-12-03T16:34:06.083Z,99851.00
2022-12-03T16:36:33.805Z,99854.72
2022-12-03T16:39:03.565Z,99857.81
2022-12-03T16:41:31.280Z,99853.94
2022-12-03T16:44:01.637Z,99841.47
2022-12-03T16:46:31.072Z,99822.38
2022-12-03T16:48:59.398Z,99841.56
2022-12-03T16:51:30.258Z,99864.31
2022-12-03T16:53:57.879Z,99851.47
2022-12-03T16:56:25.476Z,99850.34
2022-12-03T16:58:53.079Z,99847.97
2022-12-03T17:01:23.300Z,99844.09
2022-12-03T17:03:52.424Z,99847.50
2022-12-03T17:06:20.238Z,99845.94
2022-12-03T17:08:49.943Z,99841.41
2022-12-03T17:11:18.377Z,99840.59
2022-12-03T17:13:46.051Z,99830.50
2022-12-03T17:16:13.743Z,99838.22
2022-12-03T17:18:41.432Z,99834.47
2022-12-03T17:21:10.367Z,99835.59
2022-12-03T17:23:38.003Z,99825.69
2022-12-03T17:26:06.037Z,99824.00
2022-12-03T17:28:33.688Z,99836.94
2022-12-03T17:31:01.431Z,99832.47
2022-12-03T17:33:29.138Z,99828.19
2022-12-03T17:35:56.797Z,99829.34
2022-12-03T17:38:25.706Z,99842.84
2022-12-03T17:40:53.294Z,99826.19
2022-12-03T17:43:20.917Z,99832.94
2022-12-03T17:45:48.556Z,99836.94
2022-12-03T17:48:16.837Z,99834.84
2022-12-03T17:50:44.444Z,99839.31
2022-12-03T17:53:12.408Z,99833.56
2022-12-03T17:55:45.020Z,99839.00
2022-12-03T17:58:13.322Z,99831.84
2022-12-03T18:00:41.198Z,99834.06
2022-12-03T18:03:09.244Z,99828.53
2022-12-03T18:05:37.029Z,99827.91
2022-12-03T18:08:04.937Z,99825.47
2022-12-03T18:10:32.649Z,99813.34
2022-12-03T18:13:02.340Z,99819.75
2022-12-03T18:15:30.770Z,99818.69
2022-12-03T18:17:58.414Z,99817.41
2022-12-03T18:20:26.043Z,99815.69
2022-12-03T18:22:53.741Z,99815.75
2022-12-03T18:25:21.408Z,99810.00
2022-12-03T18:27:49.082Z,99815.78
2022-12-03T18:30:18.572Z,99809.28
2022-12-03T18:32:46.194Z,99813.56
2022-12-03T18:35:13.895Z,99810.19
2022-12-03T18:37:41.624Z,99815.97
2022-12-03T18:40:17.647Z,99819.25
2022-12-03T18:42:45.650Z,99815.34
2022-12-03T18:45:14.831Z,99814.13
2022-12-03T18:47:44.025Z,99812.56
2022-12-03T18:50:13.201Z,99817.22
2022-12-03T18:52:41.357Z,99804.19
2022-12-03T18:55:12.475Z,99803.34
2022-12-03T18:57:40.110Z,99796.03
2022-12-03T19:00:13.407Z,99797.84
2022-12-03T19:05:31.479Z,99798.69
2022-12-03T19:07:59.193Z,99804.13
2022-12-03T19:10:27.137Z,99798.97
2022-12-03T19:12:54.793Z,99793.28
2022-12-03T19:15:22.809Z,99792.41
2022-12-03T19:17:50.946Z,99794.53
2022-12-03T19:20:18.772Z,99795.59
2022-12-03T19:22:47.723Z,99800.56
2022-12-03T19:25:15.528Z,99808.75
2022-12-03T19:27:43.158Z,99802.50
2022-12-03T19:30:12.040Z,99801.59
2022-12-03T19:32:39.741Z,99793.84
2022-12-03T19:35:10.983Z,99796.25
2022-12-03T19:37:38.638Z,99706.03
2022-12-03T19:40:10.507Z,99812.09
2022-12-03T19:42:38.207Z,99803.06
2022-12-03T19:45:06.858Z,99810.72
2022-12-03T19:47:34.850Z,99806.38
2022-12-03T19:50:02.705Z,99812.25
2022-12-03T19:52:30.418Z,99805.47
2022-12-03T19:54:58.072Z,99813.53
2022-12-03T19:57:27.072Z,99809.75
2022-12-03T19:59:55.067Z,99807.50
2022-12-03T20:02:23.151Z,99802.25
2022-12-03T20:04:51.100Z,99802.69
2022-12-03T20:07:18.721Z,99798.84
2022-12-03T20:09:46.365Z,99807.47
2022-12-03T20:12:14.196Z,99798.44
2022-12-03T20:14:43.195Z,99790.63
2022-12-03T20:17:11.126Z,99788.06
2022-12-03T20:19:38.718Z,99787.97
2022-12-03T20:22:06.351Z,99787.84
2022-12-03T20:24:34.047Z,99791.72
2022-12-03T20:27:01.651Z,99786.81
2022-12-03T20:29:29.338Z,99789.72
2022-12-03T20:31:59.811Z,99785.22
2022-12-03T20:34:27.560Z,99788.19
2022-12-03T20:36:55.173Z,99784.81
2022-12-03T20:39:22.901Z,99787.75
2022-12-03T20:41:50.510Z,99788.59
2022-12-03T20:44:18.155Z,99794.72
2022-12-03T20:46:45.807Z,99793.34
2022-12-03T20:49:14.768Z,99785.66
2022-12-03T20:51:42.829Z,99787.94
2022-12-03T20:54:10.890Z,99793.50
2022-12-03T20:56:41.885Z,99781.16
2022-12-03T20:59:12.939Z,99774.78
2022-12-03T21:01:41.224Z,99783.97
2022-12-03T21:04:28.816Z,99779.38
2022-12-03T21:07:16.734Z,99777.56
2022-12-03T21:10:04.907Z,99789.31
2022-12-03T21:12:52.848Z,99784.50
2022-12-03T21:15:40.852Z,99778.38
2022-12-03T21:18:28.791Z,99774.28
2022-12-03T21:21:19.608Z,99776.34
2022-12-03T21:24:08.155Z,99773.16
2022-12-03T21:26:56.284Z,99771.63
2022-12-03T21:29:44.195Z,99762.09
2022-12-03T21:32:32.132Z,99768.19
2022-12-03T21:35:20.140Z,99768.91
2022-12-03T21:38:09.361Z,99770.63
2022-12-03T21:40:58.290Z,99753.00
2022-12-03T21:43:46.210Z,99758.63
2022-12-03T21:47:09.618Z,99757.84
2022-12-03T21:49:42.718Z,99769.69
2022-12-03T21:52:30.622Z,99766.59
2022-12-03T21:55:20.220Z,99765.94
2022-12-03T21:58:08.523Z,99768.31
2022-12-03T22:00:56.504Z,99769.78
2022-12-03T22:03:44.833Z,99777.47
2022-12-03T22:06:32.729Z,99764.63
2022-12-03T22:09:26.294Z,99766.81
2022-12-03T22:12:16.013Z,99769.53
2022-12-03T22:15:04.469Z,99768.59
2022-12-03T22:17:52.390Z,99766.06
2022-12-03T22:20:42.586Z,99767.84
2022-12-03T22:23:30.922Z,99763.16
2022-12-03T22:26:20.038Z,99752.13
2022-12-03T22:29:11.514Z,99762.22
2022-12-03T22:31:59.773Z,99763.09
2022-12-03T22:34:47.709Z,99770.50
2022-12-03T22:37:35.703Z,99766.59
2022-12-03T22:40:23.607Z,99758.56
2022-12-03T22:43:11.472Z,99757.56
2022-12-03T22:46:00.962Z,99731.94
2022-12-03T22:48:48.911Z,99764.41
2022-12-03T22:51:37.045Z,99752.75
2022-12-03T22:54:24.978Z,99767.88
2022-12-03T22:57:12.954Z,99674.28
2022-12-03T23:00:00.832Z,99770.53
2022-12-03T23:02:51.865Z,99770.06
2022-12-03T23:05:40.757Z,99765.81
2022-12-03T23:08:28.684Z,99659.25
2022-12-03T23:11:17.260Z,99668.75
2022-12-03T23:14:05.267Z,99725.97
2022-12-03T23:16:53.182Z,99722.53
2022-12-03T23:19:42.403Z,99718.63
2022-12-03T23:22:30.329Z,99701.53
2022-12-03T23:25:19.087Z,99705.63
2022-12-03T23:28:07.545Z,99700.19
2022-12-03T23:30:55.615Z,99714.56
2022-12-03T23:33:43.628Z,99715.19
2022-12-03T23:36:34.280Z,99713.19
2022-12-03T23:39:22.190Z,99712.72
2022-12-03T23:42:10.342Z,99706.81
2022-12-03T23:44:58.297Z,99716.28
2022-12-03T23:47:46.219Z,99709.13
2022-12-03T23:50:34.830Z,99702.59
2022-12-03T23:53:24.572Z,99711.94
2022-12-03T23:56:14.951Z,99711.66
2022-12-03T23:59:02.877Z,99729.63
